Time;durP1;ratioP1;P1;durP2;ratioP2;P2;SDS_P1;SDS_P2;PMS_P1;PMS_P2;Temp;Humidity;BMP_temperature;BMP_pressure;BME280_temperature;BME280_humidity;BME280_pressure;Samples;Min_cycle;Max_cycle;Signal;HPM_P1;HPM_P2
2022/06/08 00:01:57;;;;;;;1.58;0.75;;;;;;;16.08;73.68;96465.66;4936395;29;20055;-77
2022/06/08 00:04:25;;;;;;;0.70;0.70;;;;;;;16.08;73.62;96470.13;4929445;29;20060;-76
2022/06/08 00:06:53;;;;;;;1.73;0.70;;;;;;;16.03;73.38;96468.16;4917873;29;20143;-76
2022/06/08 00:09:22;;;;;;;3.03;0.80;;;;;;;15.99;73.75;96467.75;4917069;29;20052;-77
2022/06/08 00:11:50;;;;;;;1.42;0.80;;;;;;;15.95;73.79;96469.22;4916870;29;20100;-77
2022/06/08 00:14:18;;;;;;;0.60;0.60;;;;;;;15.93;73.96;96475.72;4916628;29;20058;-77
2022/06/08 00:16:45;;;;;;;3.13;0.90;;;;;;;15.89;73.88;96477.19;4916728;29;20058;-77
2022/06/08 00:19:13;;;;;;;0.88;0.70;;;;;;;15.84;74.05;96462.84;4916494;29;20048;-77
2022/06/08 00:21:41;;;;;;;0.82;0.82;;;;;;;15.81;74.24;96457.25;4916418;29;20502;-76
2022/06/08 00:24:09;;;;;;;1.00;0.90;;;;;;;15.79;74.26;96462.72;4916513;29;20499;-77
2022/06/08 00:26:37;;;;;;;2.28;0.65;;;;;;;15.78;74.49;96455.03;4916371;29;20107;-77
2022/06/08 00:29:06;;;;;;;1.27;0.68;;;;;;;15.75;74.40;96455.47;4916714;29;20482;-77
2022/06/08 00:31:34;;;;;;;0.95;0.80;;;;;;;15.74;74.83;96453.84;4916052;29;20048;-76
2022/06/08 00:34:02;;;;;;;1.45;0.60;;;;;;;15.76;74.85;96462.34;4916312;29;20092;-77
2022/06/08 00:36:29;;;;;;;3.78;1.20;;;;;;;15.76;74.73;96452.63;4916256;29;20048;-76
2022/06/08 00:38:57;;;;;;;1.15;1.00;;;;;;;15.76;74.48;96449.97;4916321;29;20145;-76
2022/06/08 00:41:33;;;;;;;0.90;0.77;;;;;;;15.75;74.78;96450.22;4916200;29;20062;-76
2022/06/08 00:44:06;;;;;;;2.58;1.38;;;;;;;15.70;74.76;96453.47;4916515;29;20070;-76
2022/06/08 00:46:34;;;;;;;2.50;1.02;;;;;;;15.69;74.48;96456.31;4916194;29;20056;-76
2022/06/08 00:49:12;;;;;;;2.15;0.70;;;;;;;15.63;74.63;96453.53;4916355;29;20056;-76
2022/06/08 00:51:40;;;;;;;2.92;0.85;;;;;;;15.58;74.35;96453.38;4915774;29;20103;-76
2022/06/08 00:54:14;;;;;;;2.05;1.15;;;;;;;15.56;74.17;96449.34;4916404;29;20095;-76
2022/06/08 00:56:48;;;;;;;2.95;1.05;;;;;;;15.51;74.37;96450.00;4916051;29;20084;-77
2022/06/08 00:59:17;;;;;;;3.08;0.82;;;;;;;15.48;74.42;96445.19;4916248;29;20482;-77
2022/06/08 01:01:45;;;;;;;1.23;1.10;;;;;;;15.44;74.38;96442.19;4916090;29;20433;-76
2022/06/08 01:04:16;;;;;;;2.40;1.20;;;;;;;15.39;74.38;96439.41;4916156;29;20063;-76
2022/06/08 01:06:48;;;;;;;2.15;0.82;;;;;;;15.36;74.27;96446.91;4916331;29;20481;-77
2022/06/08 01:09:20;;;;;;;1.17;0.85;;;;;;;15.36;74.52;96445.06;4916088;29;20437;-76
2022/06/08 01:11:48;;;;;;;4.13;0.90;;;;;;;15.36;73.83;96441.66;4915644;29;20135;-77
2022/06/08 01:14:19;;;;;;;1.55;0.88;;;;;;;15.34;73.78;96441.88;4916109;29;20095;-76
2022/06/08 01:17:00;;;;;;;0.85;0.77;;;;;;;15.30;73.64;96442.50;4916240;29;20052;-76
2022/06/08 01:19:28;;;;;;;1.50;1.10;;;;;;;15.24;73.66;96434.47;4916315;29;20426;-76
2022/06/08 01:22:00;;;;;;;1.00;1.00;;;;;;;15.21;74.03;96427.00;4915847;29;20151;-77
2022/06/08 01:24:29;;;;;;;1.02;0.93;;;;;;;15.18;73.72;96430.06;4915938;29;20430;-77
2022/06/08 01:27:31;;;;;;;3.85;1.10;;;;;;;15.17;73.84;96431.06;4917672;29;20052;-77
2022/06/08 01:30:16;;;;;;;2.15;1.02;;;;;;;15.17;73.86;96428.44;4914130;29;20079;-76
2022/06/08 01:33:12;;;;;;;4.85;1.10;;;;;;;15.14;73.67;96426.25;4919572;29;20058;-77
2022/06/08 01:35:45;;;;;;;4.47;0.98;;;;;;;15.10;73.37;96417.19;4919612;29;20519;-76
2022/06/08 01:38:19;;;;;;;;;;;;;;;15.10;73.22;96427.72;4919858;29;20143;-77
2022/06/08 01:41:11;;;;;;;1.65;1.15;;;;;;;15.02;73.09;96426.16;4918957;29;20381;-77
2022/06/08 01:43:55;;;;;;;1.85;0.88;;;;;;;14.96;73.62;96420.97;4922635;29;20048;-76
2022/06/08 01:46:25;;;;;;;1.42;1.00;;;;;;;14.97;74.25;96417.31;4941865;29;20087;-76
2022/06/08 01:49:04;;;;;;;3.15;1.00;;;;;;;14.98;74.27;96409.22;4941887;29;20054;-77
2022/06/08 01:51:53;;;;;;;3.33;1.42;;;;;;;14.98;73.49;96400.53;4941888;29;20043;-76
2022/06/08 01:54:41;;;;;;;2.80;1.10;;;;;;;15.00;74.94;96406.38;4931622;29;20040;-76
2022/06/08 01:57:16;;;;;;;4.15;0.93;;;;;;;14.99;73.86;96402.94;4941984;29;20052;-76
2022/06/08 01:59:51;;;;;;;1.30;0.88;;;;;;;14.96;73.32;96395.50;4941144;29;20036;-76
2022/06/08 02:02:35;;;;;;;2.30;1.00;;;;;;;14.93;73.54;96400.38;4940170;29;20061;-76
2022/06/08 02:05:08;;;;;;;1.65;1.20;;;;;;;14.88;73.27;96395.75;4940747;29;20139;-76
2022/06/08 02:07:42;;;;;;;2.78;1.33;;;;;;;14.87;73.22;96390.72;4925351;29;20083;-76
2022/06/08 02:10:18;;;;;;;3.17;1.48;;;;;;;14.86;73.27;96391.75;4920261;29;20130;-76
2022/06/08 02:12:50;;;;;;;3.70;1.55;;;;;;;14.77;72.97;96385.94;5059009;23;20039;-80
2022/06/08 02:15:24;;;;;;;5.40;1.10;;;;;;;14.72;73.02;96389.22;4957236;29;20076;-81
2022/06/08 02:17:55;;;;;;;2.08;1.23;;;;;;;14.70;73.12;96385.19;4948299;29;20137;-80
2022/06/08 02:20:27;;;;;;;1.63;1.08;;;;;;;14.65;73.10;96383.22;4939479;29;20080;-80
2022/06/08 02:23:02;;;;;;;1.65;1.23;;;;;;;14.61;73.30;96380.19;4922983;29;20055;-80
2022/06/08 02:25:37;;;;;;;2.65;1.27;;;;;;;14.57;73.25;96378.22;4900414;29;20087;-81
2022/06/08 02:28:13;;;;;;;1.77;0.90;;;;;;;14.54;73.70;96373.34;4900438;29;20064;-80
2022/06/08 02:30:48;;;;;;;1.08;1.05;;;;;;;14.50;73.44;96377.44;4900694;29;20112;-80
2022/06/08 02:36:14;;;;;;;4.13;1.00;;;;;;;14.47;73.48;96370.75;4901093;29;20100;-80
2022/06/08 02:38:48;;;;;;;2.55;1.10;;;;;;;14.46;73.84;96371.78;4900783;29;20075;-79
2022/06/08 02:41:22;;;;;;;1.80;1.20;;;;;;;14.46;73.68;96371.00;4900607;29;20056;-80
2022/06/08 02:43:55;;;;;;;1.95;1.27;;;;;;;14.43;73.82;96372.22;4900716;29;20052;-80
2022/06/08 02:46:34;;;;;;;2.03;1.17;;;;;;;14.40;73.83;96376.03;4900576;29;20080;-79
2022/06/08 02:49:06;;;;;;;2.25;1.17;;;;;;;14.38;73.93;96372.03;4900677;29;20056;-80
2022/06/08 02:51:36;;;;;;;1.23;1.08;;;;;;;14.38;73.93;96377.28;4899691;29;20049;-79
2022/06/08 02:54:07;;;;;;;4.22;1.40;;;;;;;14.34;73.69;96373.47;4899064;29;20510;-79
2022/06/08 02:56:46;;;;;;;1.43;1.10;;;;;;;14.31;74.12;96366.81;4899340;29;20056;-80
2022/06/08 02:59:21;;;;;;;2.53;1.13;;;;;;;14.29;74.13;96379.34;4899740;29;20491;-80
2022/06/08 03:01:59;;;;;;;1.35;1.20;;;;;;;14.30;74.66;96373.09;4899130;29;20048;-80
2022/06/08 03:04:35;;;;;;;3.10;1.67;;;;;;;14.33;74.47;96370.03;4899471;29;20553;-79
2022/06/08 03:07:11;;;;;;;2.00;1.10;;;;;;;14.35;74.24;96369.84;4899677;29;20438;-80
2022/06/08 03:09:41;;;;;;;4.20;1.67;;;;;;;14.33;73.92;96370.03;4899592;29;20081;-80
2022/06/08 03:12:18;;;;;;;2.25;1.50;;;;;;;14.29;74.18;96374.09;4899612;29;20060;-79
2022/06/08 03:14:48;;;;;;;1.55;1.00;;;;;;;14.26;73.95;96364.03;4899592;29;20108;-80
2022/06/08 03:17:28;;;;;;;1.75;1.02;;;;;;;14.25;74.14;96366.84;4899533;29;20080;-80
2022/06/08 03:19:58;;;;;;;1.63;1.17;;;;;;;14.23;74.26;96367.06;4899904;29;20067;-80
2022/06/08 03:22:28;;;;;;;1.42;0.95;;;;;;;14.21;74.27;96374.34;4900146;29;20108;-80
2022/06/08 03:24:57;;;;;;;4.88;1.20;;;;;;;14.23;74.30;96364.44;4898771;29;20060;-79
2022/06/08 03:27:28;;;;;;;0.90;0.90;;;;;;;14.26;74.13;96363.25;4899513;29;20052;-80
2022/06/08 03:29:57;;;;;;;2.85;1.38;;;;;;;14.27;74.10;96363.00;4899554;29;20048;-79
2022/06/08 03:32:26;;;;;;;2.28;1.33;;;;;;;14.24;74.30;96368.69;4899130;29;20048;-80
2022/06/08 03:34:55;;;;;;;2.40;1.17;;;;;;;14.20;74.34;96357.00;4899321;29;20048;-80
2022/06/08 03:37:24;;;;;;;1.73;1.35;;;;;;;14.20;74.67;96359.63;4899211;29;20421;-79
2022/06/08 03:39:53;;;;;;;1.40;1.30;;;;;;;14.22;74.56;96355.78;4899049;29;20061;-81
2022/06/08 03:42:23;;;;;;;1.52;1.25;;;;;;;14.24;74.84;96352.94;4898785;29;20062;-79
2022/06/08 03:44:53;;;;;;;1.73;1.20;;;;;;;14.28;74.71;96355.94;4898943;29;20582;-80
2022/06/08 03:47:26;;;;;;;1.33;1.23;;;;;;;14.29;74.61;96357.56;4899155;29;20053;-79
2022/06/08 03:49:58;;;;;;;1.15;1.05;;;;;;;14.26;74.31;96352.75;4898622;29;20087;-79
2022/06/08 03:52:31;;;;;;;1.40;1.10;;;;;;;14.20;74.42;96354.38;4899058;29;20062;-80
2022/06/08 03:55:03;;;;;;;2.45;1.27;;;;;;;14.18;74.44;96356.41;4898667;29;20108;-80
2022/06/08 03:57:34;;;;;;;1.10;1.02;;;;;;;14.13;74.40;96343.94;4899057;29;20071;-80
2022/06/08 04:00:06;;;;;;;1.90;1.10;;;;;;;14.14;74.46;96352.59;4898712;29;20499;-81
2022/06/08 04:02:34;;;;;;;1.70;0.95;;;;;;;14.11;74.28;96353.81;4899198;29;20056;-79
2022/06/08 04:05:03;;;;;;;1.58;1.08;;;;;;;14.12;74.61;96352.78;4898902;29;20060;-79
2022/06/08 04:07:33;;;;;;;2.28;1.13;;;;;;;14.15;74.61;96351.59;4898886;29;20053;-80
2022/06/08 04:10:02;;;;;;;2.95;1.33;;;;;;;14.17;74.25;96352.19;4898917;29;20059;-81
2022/06/08 04:12:31;;;;;;;1.15;0.90;;;;;;;14.17;74.56;96350.38;4898711;29;20163;-80
2022/06/08 04:15:00;;;;;;;1.92;1.05;;;;;;;14.21;74.49;96353.34;4898604;29;20044;-79
2022/06/08 04:17:31;;;;;;;1.30;1.20;;;;;;;14.27;74.54;96352.50;4899002;29;20404;-80
2022/06/08 04:20:00;;;;;;;1.40;1.30;;;;;;;14.29;74.39;96350.47;4898484;29;20055;-80
2022/06/08 04:22:32;;;;;;;4.32;1.48;;;;;;;14.34;74.57;96345.44;4898410;29;20052;-80
2022/06/08 04:25:02;;;;;;;1.60;1.00;;;;;;;14.37;74.39;96345.00;4898177;29;20052;-80
2022/06/08 04:27:31;;;;;;;2.63;1.85;;;;;;;14.41;74.49;96335.69;4898207;29;20060;-79
2022/06/08 04:30:00;;;;;;;2.45;1.35;;;;;;;14.45;74.61;96332.63;4898148;29;20108;-79
2022/06/08 04:32:30;;;;;;;5.18;1.20;;;;;;;14.48;74.52;96340.09;4898287;29;20049;-80
2022/06/08 04:34:59;;;;;;;2.38;1.42;;;;;;;14.52;74.49;96343.88;4898396;29;20116;-80
2022/06/08 04:37:28;;;;;;;1.63;1.23;;;;;;;14.53;74.68;96348.91;4901533;29;20048;-80
2022/06/08 04:39:57;;;;;;;2.33;1.35;;;;;;;14.58;74.48;96349.13;4901330;29;20072;-81
2022/06/08 04:42:27;;;;;;;2.33;1.52;;;;;;;14.59;74.62;96348.09;4900469;29;20076;-79
2022/06/08 04:44:56;;;;;;;1.80;1.33;;;;;;;14.61;74.47;96346.06;4898272;29;20060;-79
2022/06/08 04:47:25;;;;;;;4.70;1.13;;;;;;;14.65;74.26;96346.47;4902429;29;20484;-79
2022/06/08 04:49:55;;;;;;;3.70;1.45;;;;;;;14.70;74.05;96346.63;4901800;29;20057;-81
2022/06/08 04:52:24;;;;;;;1.30;1.20;;;;;;;14.74;74.06;96350.41;4905471;29;20084;-80
2022/06/08 04:54:53;;;;;;;3.10;1.25;;;;;;;14.78;73.88;96348.97;4913924;29;20053;-80
2022/06/08 04:57:22;;;;;;;1.23;1.13;;;;;;;14.82;73.93;96352.78;4905342;29;20108;-80
2022/06/08 04:59:51;;;;;;;1.40;1.30;;;;;;;14.88;73.84;96360.81;4914582;29;20080;-80
2022/06/08 05:05:21;;;;;;;3.47;1.70;;;;;;;14.95;73.24;96362.34;4901901;29;20056;-80
2022/06/08 05:07:49;;;;;;;2.92;1.60;;;;;;;14.98;73.00;96354.06;4902337;29;20077;-80
2022/06/08 05:10:19;;;;;;;2.22;1.27;;;;;;;15.03;73.14;96358.66;4920610;29;20081;-80
2022/06/08 05:12:47;;;;;;;3.83;1.67;;;;;;;15.08;72.63;96350.94;4902852;29;20091;-80
2022/06/08 05:15:18;;;;;;;2.38;1.13;;;;;;;15.10;72.22;96338.38;4917123;29;20044;-79
2022/06/08 05:17:47;;;;;;;3.08;1.50;;;;;;;15.10;72.32;96343.63;4907194;29;20052;-80
2022/06/08 05:20:21;;;;;;;2.30;1.15;;;;;;;15.13;72.13;96343.22;4909808;29;20056;-79
2022/06/08 05:22:50;;;;;;;2.63;1.15;;;;;;;15.16;72.00;96337.53;4916074;29;20060;-79
2022/06/08 05:25:23;;;;;;;2.13;1.48;;;;;;;15.17;72.04;96339.13;4920927;29;20429;-78
2022/06/08 05:27:51;;;;;;;1.95;1.55;;;;;;;15.21;71.72;96334.25;4914538;29;20044;-80
2022/06/08 05:30:20;;;;;;;1.55;1.42;;;;;;;15.21;71.79;96335.03;4920514;29;20119;-79
2022/06/08 05:32:49;;;;;;;3.95;1.92;;;;;;;15.24;71.91;96332.00;4921909;29;20048;-79
2022/06/08 05:35:20;;;;;;;1.90;1.70;;;;;;;15.27;71.92;96328.13;4921006;29;20052;-80
2022/06/08 05:37:49;;;;;;;4.60;2.25;;;;;;;15.30;71.49;96327.69;4921499;29;20051;-80
2022/06/08 05:40:19;;;;;;;3.90;1.80;;;;;;;15.35;71.65;96329.66;4921248;29;20056;-80
2022/06/08 05:42:48;;;;;;;3.20;2.17;;;;;;;15.40;71.54;96328.00;4920458;29;20056;-80
2022/06/08 05:45:21;;;;;;;1.50;1.30;;;;;;;15.45;71.50;96332.59;4920959;29;20546;-79
2022/06/08 05:47:50;;;;;;;1.92;1.83;;;;;;;15.51;71.31;96323.03;4921864;29;20067;-80
2022/06/08 05:50:23;;;;;;;;;;;;;;;15.56;71.19;96334.47;4922141;29;20107;-80
2022/06/08 05:52:53;;;;;;;2.35;1.10;;;;;;;15.60;70.69;96333.03;4921917;29;20021;-80
2022/06/08 05:55:26;;;;;;;3.95;1.58;;;;;;;15.63;70.59;96331.78;4921697;29;20075;-80
2022/06/08 05:57:57;;;;;;;2.60;1.30;;;;;;;15.66;70.00;96332.16;4911760;29;20124;-79
2022/06/08 06:00:29;;;;;;;3.47;1.57;;;;;;;15.72;70.18;96329.69;4902456;29;20056;-78
2022/06/08 06:03:11;;;;;;;1.58;1.48;;;;;;;15.78;70.11;96334.06;4906896;29;20116;-80
2022/06/08 06:09:20;;;;;;;2.25;1.48;;;;;;;15.82;70.16;96322.88;5806357;23;20052;-80
2022/06/08 08:15:01;;;;;;;1.38;0.50;;;;;;;19.72;53.55;96214.19;5046178;23;20056;-82
2022/06/08 08:17:29;;;;;;;2.38;1.23;;;;;;;19.74;53.13;96209.44;4947495;29;20032;-81
2022/06/08 08:22:35;;;;;;;1.38;0.60;;;;;;;19.72;53.05;96211.53;4937891;29;20464;-80
2022/06/08 08:25:03;;;;;;;2.15;0.82;;;;;;;19.74;52.47;96202.34;4939527;29;20072;-80
2022/06/08 08:27:32;;;;;;;2.13;0.98;;;;;;;19.79;53.86;96203.41;4933680;29;20071;-80
2022/06/08 08:30:06;;;;;;;2.47;0.60;;;;;;;19.84;50.85;96198.97;4939968;29;20063;-81
2022/06/08 08:32:34;;;;;;;2.03;0.63;;;;;;;19.91;51.36;96210.16;4939254;29;20091;-80
2022/06/08 08:35:03;;;;;;;2.15;0.88;;;;;;;19.99;51.76;96206.25;4939595;29;20048;-79
2022/06/08 08:37:38;;;;;;;2.08;0.75;;;;;;;20.13;50.17;96201.34;4940308;29;20045;-80
2022/06/08 08:40:15;;;;;;;1.83;0.65;;;;;;;20.23;50.88;96204.09;4939853;29;20076;-80
2022/06/08 08:42:43;;;;;;;2.90;0.82;;;;;;;20.28;49.54;96200.69;4939224;29;20036;-80
2022/06/08 08:45:15;;;;;;;3.78;0.93;;;;;;;20.29;48.91;96197.78;4939768;29;20084;-80
2022/06/08 08:47:59;;;;;;;5.65;1.90;;;;;;;20.33;50.09;96182.16;4941122;29;20100;-81
2022/06/08 08:50:37;;;;;;;3.33;0.70;;;;;;;20.41;49.45;96188.84;4922757;29;20040;-82
2022/06/08 08:53:21;;;;;;;1.20;0.50;;;;;;;20.49;49.22;96186.53;5117240;23;20054;-80
2022/06/08 08:56:03;;;;;;;2.50;0.70;;;;;;;20.56;50.01;96179.16;4957879;28;20079;-78
2022/06/08 08:58:38;;;;;;;3.13;0.65;;;;;;;20.65;49.25;96186.66;4959293;29;20058;-79
2022/06/08 09:01:16;;;;;;;1.52;0.88;;;;;;;20.72;47.57;96179.28;4960010;28;20036;-82
2022/06/08 09:03:48;;;;;;;5.90;1.15;;;;;;;20.78;46.54;96175.59;4965455;28;20043;-82
2022/06/08 09:06:22;;;;;;;3.10;0.35;;;;;;;20.87;45.08;96174.06;4960562;28;20055;-82
2022/06/08 09:09:00;;;;;;;5.25;0.73;;;;;;;20.96;43.23;96161.91;4960682;28;20043;-81
2022/06/08 09:18:30;;;;;;;1.33;0.75;;;;;;;21.29;44.78;96154.59;4936744;28;20043;-82
2022/06/08 09:31:51;;;;;;;1.75;0.45;;;;;;;21.58;44.72;96144.38;4119204;23;20103;-81
2022/06/08 09:34:26;;;;;;;2.37;0.93;;;;;;;21.65;42.70;96141.47;4941741;29;20079;-81
2022/06/08 09:37:20;;;;;;;2.17;0.50;;;;;;;21.84;43.35;96138.28;4933935;28;20053;-78
2022/06/08 09:39:49;;;;;;;1.08;0.30;;;;;;;21.99;41.53;96127.66;4955664;28;20054;-80
2022/06/08 09:42:39;;;;;;;1.65;0.63;;;;;;;22.10;43.56;96136.41;4946264;28;20056;-79
2022/06/08 09:45:30;;;;;;;0.98;0.57;;;;;;;22.16;44.08;96136.16;4939518;29;20040;-79
2022/06/08 09:51:26;;;;;;;2.75;1.00;;;;;;;22.17;42.98;96131.63;4952055;28;20028;-80
2022/06/08 09:54:11;;;;;;;5.15;1.00;;;;;;;22.19;43.32;96135.63;4942993;29;20059;-80
2022/06/08 09:56:59;;;;;;;1.25;0.35;;;;;;;22.25;43.96;96122.38;4948292;29;20043;-80
2022/06/08 09:59:52;;;;;;;3.83;0.82;;;;;;;22.34;43.09;96123.41;4947960;29;20032;-78
2022/06/08 10:02:31;;;;;;;2.03;0.63;;;;;;;22.45;43.18;96122.31;4945856;28;20052;-79
2022/06/08 10:05:23;;;;;;;4.72;0.70;;;;;;;22.55;42.50;96114.34;4944151;29;20104;-82
2022/06/08 10:08:36;;;;;;;3.75;0.60;;;;;;;22.70;43.04;96107.41;4944499;29;20036;-82
2022/06/08 10:11:42;;;;;;;2.47;0.70;;;;;;;22.81;42.15;96098.31;5014945;23;20035;-77
2022/06/08 10:14:24;;;;;;;2.47;0.68;;;;;;;22.86;42.00;96098.28;4963483;28;20040;-82
2022/06/08 10:16:58;;;;;;;;;;;;;;;22.93;43.86;96101.44;4947660;28;20044;-81
2022/06/08 10:19:32;;;;;;;1.58;0.52;;;;;;;22.94;41.51;96100.38;4947224;29;19906;-80
2022/06/08 10:24:50;;;;;;;3.88;1.02;;;;;;;23.02;42.08;96094.53;818123;26;20284;-80
2022/06/08 10:27:27;;;;;;;5.67;0.90;;;;;;;23.07;41.16;96093.72;4981933;28;20090;-78
2022/06/08 10:30:07;;;;;;;5.57;1.77;;;;;;;23.07;41.47;96091.06;4966586;28;20050;-80
2022/06/08 10:32:42;;;;;;;5.68;2.10;;;;;;;23.08;40.77;96089.19;4991982;28;20031;-79
2022/06/08 10:35:23;;;;;;;4.95;1.40;;;;;;;23.03;39.69;96084.69;4979596;28;20036;-79
2022/06/08 10:37:55;;;;;;;1.52;0.85;;;;;;;23.03;39.71;96088.13;4981044;28;20051;-80
2022/06/08 10:40:29;;;;;;;3.53;1.73;;;;;;;23.03;38.38;96085.47;4980940;28;20090;-79
2022/06/08 10:42:59;;;;;;;6.20;2.38;;;;;;;23.04;40.31;96079.06;4961150;28;20082;-79
2022/06/08 10:45:54;;;;;;;0.98;0.50;;;;;;;23.01;38.20;96079.63;4969778;28;20039;-79
2022/06/08 10:48:51;;;;;;;3.65;1.77;;;;;;;22.97;39.79;96075.88;4999578;28;20031;-81
2022/06/08 10:51:37;;;;;;;6.13;2.53;;;;;;;22.94;38.42;96070.34;4990858;28;20063;-81
2022/06/08 10:54:55;;;;;;;2.47;1.08;;;;;;;22.93;38.41;96064.19;4963300;28;20068;-81
2022/06/08 10:57:50;;;;;;;2.45;0.60;;;;;;;22.97;39.55;96059.16;4962591;28;20079;-78
2022/06/08 11:00:46;;;;;;;2.45;0.93;;;;;;;22.97;38.45;96059.16;4960792;28;20047;-78
2022/06/08 11:03:38;;;;;;;3.05;0.57;;;;;;;22.96;39.64;96063.66;4961942;28;20048;-79
2022/06/08 11:06:34;;;;;;;3.13;0.60;;;;;;;22.96;39.26;96058.34;4962286;28;20031;-78
2022/06/08 11:09:10;;;;;;;3.08;0.60;;;;;;;22.98;38.56;96061.53;4969104;28;20050;-78
2022/06/08 11:11:43;;;;;;;1.52;0.40;;;;;;;23.03;39.48;96066.06;4984438;28;20051;-80
2022/06/08 11:14:52;;;;;;;2.10;0.65;;;;;;;23.07;38.80;96053.00;4977947;28;20040;-78
2022/06/08 11:17:26;;;;;;;2.20;0.70;;;;;;;23.02;38.29;96051.16;4980975;28;20061;-79
2022/06/08 11:20:01;;;;;;;3.90;1.00;;;;;;;22.97;38.90;96051.94;4981516;28;20046;-81
2022/06/08 11:22:49;;;;;;;2.72;0.50;;;;;;;22.98;38.69;96045.56;5420888;23;20804;-78
2022/06/08 11:25:34;;;;;;;2.63;0.38;;;;;;;22.99;38.58;96047.16;4943490;29;20052;-79
2022/06/08 11:28:44;;;;;;;2.20;0.40;;;;;;;23.07;39.69;96031.72;5267558;23;20059;-81
2022/06/08 11:31:52;;;;;;;2.05;0.70;;;;;;;23.12;37.11;96031.69;4961751;29;20052;-79
2022/06/08 11:34:47;;;;;;;0.52;0.52;;;;;;;23.11;37.67;96022.13;4945200;29;20044;-81
2022/06/08 11:37:38;;;;;;;1.60;0.47;;;;;;;23.16;37.82;96030.06;4942733;29;20036;-79
2022/06/08 11:43:30;;;;;;;6.50;1.70;;;;;;;23.21;37.66;96022.06;4960639;28;20064;-77
2022/06/08 11:48:58;;;;;;;1.23;0.75;;;;;;;23.25;37.92;96028.41;4961375;28;20035;-79
2022/06/08 11:51:36;;;;;;;2.97;0.68;;;;;;;23.32;36.96;96022.78;4960911;28;20032;-79
2022/06/08 11:54:25;;;;;;;1.45;0.43;;;;;;;23.40;38.38;96015.00;4960762;28;20080;-80
2022/06/08 11:57:10;;;;;;;1.55;0.35;;;;;;;23.41;36.88;96005.16;4952703;28;20056;-79
2022/06/08 11:59:54;;;;;;;4.22;0.60;;;;;;;23.36;36.84;96005.97;4941441;29;20039;-78
2022/06/08 12:02:30;;;;;;;1.17;0.57;;;;;;;23.31;37.21;96010.53;4955506;29;20055;-79
2022/06/08 12:05:10;;;;;;;1.63;0.40;;;;;;;23.27;37.13;96010.31;4961468;28;20042;-79
2022/06/08 12:07:51;;;;;;;0.70;0.40;;;;;;;23.24;37.23;96000.19;4961127;28;20056;-80
2022/06/08 12:10:31;;;;;;;2.75;0.50;;;;;;;23.20;37.20;96007.97;4944523;28;20079;-80
2022/06/08 12:13:23;;;;;;;1.48;0.55;;;;;;;23.19;37.95;96002.91;4944889;28;20036;-80
2022/06/08 12:16:06;;;;;;;5.05;0.60;;;;;;;23.16;38.77;95993.63;4943498;28;20052;-79
2022/06/08 12:18:48;;;;;;;3.42;0.55;;;;;;;23.15;38.71;95996.53;4940801;29;20067;-79
2022/06/08 12:21:45;;;;;;;4.05;0.60;;;;;;;23.13;37.85;95994.16;4926384;29;20119;-79
2022/06/08 12:46:53;;;;;;;0.73;0.50;;;;;;;23.41;37.46;95978.53;5295908;23;20063;-80
2022/06/08 12:49:32;;;;;;;1.02;0.40;;;;;;;23.42;37.07;95980.91;4953066;29;20046;-79
2022/06/08 12:52:21;;;;;;;0.95;0.60;;;;;;;23.41;37.35;95979.31;4944540;28;20048;-80
2022/06/08 12:54:52;;;;;;;0.30;0.30;;;;;;;23.43;37.57;95971.84;4941753;29;20123;-83
2022/06/08 12:57:28;;;;;;;1.35;0.40;;;;;;;23.42;37.41;95972.94;4941585;29;20048;-82
2022/06/08 13:00:26;;;;;;;3.13;1.55;;;;;;;23.41;39.38;95978.53;4940387;29;20050;-80
2022/06/08 13:03:31;;;;;;;4.90;3.00;;;;;;;23.40;39.59;95975.06;4941327;29;20065;-80
2022/06/08 13:06:11;;;;;;;9.68;4.95;;;;;;;23.39;40.12;95970.81;4941646;29;20055;-81
2022/06/08 13:08:49;;;;;;;4.68;1.85;;;;;;;23.36;39.22;95960.75;4927294;29;20069;-81
2022/06/08 13:11:25;;;;;;;3.10;2.63;;;;;;;23.34;40.73;95965.53;4922196;29;20040;-80
2022/06/08 13:14:09;;;;;;;2.05;0.77;;;;;;;23.35;37.51;95959.16;4940434;29;20028;-81
2022/06/08 13:17:09;;;;;;;2.13;1.08;;;;;;;23.38;38.93;95953.28;4940534;29;20104;-80
2022/06/08 13:19:48;;;;;;;1.67;0.90;;;;;;;23.38;38.25;95961.25;4971467;23;20067;-80
2022/06/08 13:23:02;;;;;;;1.88;1.00;;;;;;;23.40;37.62;95953.78;4961689;28;20038;-81
2022/06/08 13:25:50;;;;;;;2.03;0.63;;;;;;;23.42;37.62;95954.31;4964234;28;20040;-80
2022/06/08 13:31:39;;;;;;;2.33;0.65;;;;;;;23.42;37.53;95943.66;4964059;28;20058;-79
2022/06/08 13:34:56;;;;;;;2.88;1.40;;;;;;;23.42;37.55;95940.22;4973428;28;20107;-80
2022/06/08 13:40:22;;;;;;;2.47;0.60;;;;;;;23.50;37.44;95930.81;5168831;23;20055;-82
2022/06/08 13:42:57;;;;;;;3.72;0.65;;;;;;;23.53;38.10;95930.25;4944965;29;20036;-81
2022/06/08 13:45:34;;;;;;;1.85;0.50;;;;;;;23.55;38.14;95936.06;4942980;29;20040;-79
2022/06/08 13:48:20;;;;;;;1.48;0.88;;;;;;;23.56;37.69;95933.13;4944326;29;20100;-79
2022/06/08 13:51:00;;;;;;;3.22;0.60;;;;;;;23.58;37.60;95925.66;4944572;29;20039;-78
2022/06/08 14:13:35;;;;;;;2.08;0.80;;;;;;;23.43;36.74;95913.28;4959901;23;20047;-78
2022/06/08 14:16:05;;;;;;;0.90;0.45;;;;;;;23.41;37.88;95906.66;4926597;29;20119;-78
2022/06/08 14:18:37;;;;;;;0.88;0.30;;;;;;;23.41;37.40;95904.00;4922952;29;20067;-79
2022/06/08 14:21:05;;;;;;;2.85;0.40;;;;;;;23.40;38.08;95897.91;4943182;29;20099;-77
2022/06/08 14:23:35;;;;;;;4.15;0.80;;;;;;;23.39;37.85;95904.28;4947073;29;20130;-77
2022/06/08 14:26:04;;;;;;;6.35;0.82;;;;;;;23.39;38.21;95901.63;4962621;29;20081;-77
2022/06/08 14:28:52;;;;;;;1.95;0.40;;;;;;;23.37;38.36;95901.09;4943948;29;20078;-79
2022/06/08 14:31:23;;;;;;;1.80;0.63;;;;;;;23.37;39.65;95908.28;4938634;29;20463;-77
2022/06/08 14:33:51;;;;;;;1.13;0.50;;;;;;;23.35;38.49;95900.63;4943788;29;20047;-77
2022/06/08 14:36:22;;;;;;;1.70;0.82;;;;;;;23.35;38.26;95905.13;4952040;29;20134;-77
2022/06/08 14:39:12;;;;;;;1.52;0.80;;;;;;;23.35;38.91;95911.25;4954692;29;20671;-77
2022/06/08 14:41:41;;;;;;;0.60;0.60;;;;;;;23.34;39.11;95900.88;4940223;29;20051;-77
2022/06/08 14:44:12;;;;;;;2.50;1.02;;;;;;;23.35;38.90;95900.63;4928046;29;20060;-77
2022/06/08 14:46:49;;;;;;;1.42;0.52;;;;;;;23.36;39.09;95899.53;4936013;29;20462;-77
2022/06/08 14:49:20;;;;;;;1.65;0.55;;;;;;;23.38;39.21;95910.69;4943426;29;20502;-77
2022/06/08 14:51:48;;;;;;;2.70;0.63;;;;;;;23.42;39.76;95897.63;4944282;29;20525;-77
2022/06/08 14:54:18;;;;;;;3.28;0.90;;;;;;;23.43;39.44;95897.31;4961307;29;20051;-77
2022/06/08 14:56:48;;;;;;;1.25;0.52;;;;;;;23.45;39.89;95903.16;4959789;28;20417;-77
2022/06/08 14:59:18;;;;;;;2.22;0.90;;;;;;;23.45;38.07;95903.16;4960835;28;20047;-77
2022/06/08 15:01:48;;;;;;;1.65;0.57;;;;;;;23.48;38.65;95901.81;4949332;29;20048;-78
2022/06/08 15:04:19;;;;;;;1.67;0.45;;;;;;;23.49;37.91;95902.63;4960034;29;20062;-77
2022/06/08 15:06:49;;;;;;;2.40;0.60;;;;;;;23.51;39.02;95903.13;4960427;29;20130;-77
2022/06/08 15:09:19;;;;;;;2.05;0.70;;;;;;;23.51;38.29;95898.59;4959608;29;20047;-77
2022/06/08 15:12:00;;;;;;;3.25;0.60;;;;;;;23.53;37.86;95895.66;4960993;29;20317;-78
2022/06/08 15:14:34;;;;;;;1.27;0.60;;;;;;;23.52;39.49;95896.72;4965837;28;20486;-77
2022/06/08 15:17:03;;;;;;;3.35;0.35;;;;;;;23.54;39.66;95897.22;4960866;28;20123;-77
2022/06/08 15:19:34;;;;;;;1.20;0.60;;;;;;;23.54;40.86;95897.22;4960910;28;20063;-79
2022/06/08 15:22:04;;;;;;;1.83;0.50;;;;;;;23.54;40.55;95897.22;4974732;28;20079;-78
2022/06/08 15:24:33;;;;;;;2.40;0.57;;;;;;;23.53;38.12;95900.97;4961697;28;20035;-77
2022/06/08 15:27:11;;;;;;;1.05;0.40;;;;;;;23.50;39.96;95897.00;4964454;28;20067;-79
2022/06/08 15:29:38;;;;;;;1.10;0.45;;;;;;;23.49;38.71;95897.28;4978146;28;20067;-78
2022/06/08 15:32:10;;;;;;;4.25;0.40;;;;;;;23.50;39.05;95896.22;4971658;28;20028;-78
2022/06/08 15:34:38;;;;;;;3.83;0.30;;;;;;;23.50;38.46;95896.22;4962480;28;20055;-78
2022/06/08 15:37:16;;;;;;;1.27;0.60;;;;;;;23.48;38.69;95888.50;4961933;28;20027;-79
2022/06/08 15:39:45;;;;;;;1.77;0.40;;;;;;;23.44;38.87;95890.94;4961682;28;20032;-79
2022/06/08 15:42:15;;;;;;;1.65;0.50;;;;;;;23.40;38.59;95887.25;4965464;28;20034;-78
2022/06/08 15:44:44;;;;;;;0.90;0.50;;;;;;;23.35;37.37;95886.50;4979582;28;20035;-79
2022/06/08 15:47:15;;;;;;;1.25;0.38;;;;;;;23.31;36.25;95883.63;4962645;28;20036;-78
2022/06/08 15:49:50;;;;;;;0.82;0.30;;;;;;;23.27;36.97;95882.59;4961374;28;20044;-78